Main page
METAR-TAF:

METAR-TAF

Airports :

Mécheria Airport

Mécheria, Algeria

latitude: 34-56N, longitude: 000-26W, elevation: 1149 m

Current weather observation

The report was made 24 minutes ago, at 06:00 UTC
Wind 6 kt from the South
Temperature 20°C
Humidity 73%
Pressure 1020 hPa
Visibility: 8000 m

METAR: DAAY 150600Z 18006KT 8000 NSC 20/15 Q1020

Time: 07:24 (06:24 UTC)

Forecast

The report was made 1 hour and 24 minutes ago, at 05:00 UTC
Forecast valid from 15 at 06 UTC to 15 at 15 UTC
Wind 8 kt from the South/Southwest
Visibility: 8000 m
Becoming
from 15 at 08 UTC to 15 at 10 UTC
Wind 15 kt from the West/Southwest
Probability 40% :
Temporary
from 15 at 11 UTC to 15 at 15 UTC
Visibility: 4000 m
Scattered clouds at a height of 3000 ft
Low drifting sand

TAF: DAAY 150500Z 1506/1515 20008KT 8000 NSC BECMG 1508/1510 25015KT PROB40 TEMPO 1511/1515 4000 DRSA SCT030

Weather observations and forecasts of more than 4000 airports (METAR and TAF reports).

The available stations are represented by yellow and red dots on the map.

Hover mouse over dot to see the name of the station.

Then click to see weather observations and forecasts.

To change the map : click on the green buttons with a black cross to zoom in, on the green button with a dash to zoom out, or on the green arrows for adjacent maps.


METAR-TAF: